Time;durP1;ratioP1;P1;durP2;ratioP2;P2;SDS_P1;SDS_P2;PMS_P1;PMS_P2;Temp;Humidity;BMP_temperature;BMP_pressure;BME280_temperature;BME280_humidity;BME280_pressure;Samples;Min_cycle;Max_cycle;Signal;HPM_P1;HPM_P2
2022/09/27 00:01:51;;;;;;;1.10;0.25;;;;;;;;;;5000146;28;20045;-64
2022/09/27 00:04:16;;;;;;;2.35;0.50;;;;;;;;;;5000701;28;20563;-68
2022/09/27 00:06:41;;;;;;;1.52;0.50;;;;;;;;;;4998408;28;20770;-68
2022/09/27 00:09:07;;;;;;;2.10;0.40;;;;;;;;;;5000736;28;20042;-67
2022/09/27 00:11:35;;;;;;;0.45;0.40;;;;;;;;;;5003858;28;20033;-61
2022/09/27 00:14:02;;;;;;;0.60;0.43;;;;;;;;;;4994139;28;20076;-61
2022/09/27 00:16:34;;;;;;;0.52;0.45;;;;;;;;;;4992759;28;20065;-56
2022/09/27 00:19:06;;;;;;;1.38;0.50;;;;;;;;;;4994232;28;20097;-55
2022/09/27 00:21:31;;;;;;;0.52;0.40;;;;;;;;;;4993612;28;20060;-62
2022/09/27 00:23:57;;;;;;;0.60;0.47;;;;;;;;;;4996522;28;20062;-60
2022/09/27 00:26:23;;;;;;;1.08;0.80;;;;;;;;;;4999076;28;20041;-60
2022/09/27 00:28:49;;;;;;;0.65;0.63;;;;;;;;;;4993440;28;20101;-61
2022/09/27 00:31:40;;;;;;;1.00;0.55;;;;;;;;;;4996625;28;20110;-61
2022/09/27 00:34:07;;;;;;;1.02;0.60;;;;;;;;;;4994087;28;20133;-60
2022/09/27 00:36:33;;;;;;;0.40;0.40;;;;;;;;;;4998871;28;20494;-64
2022/09/27 00:38:59;;;;;;;0.38;0.30;;;;;;;;;;4994738;28;20054;-67
2022/09/27 00:41:32;;;;;;;0.50;0.40;;;;;;;;;;5000492;28;20037;-74
2022/09/27 00:44:03;;;;;;;0.32;0.32;;;;;;;;;;4998072;28;20026;-74
2022/09/27 00:46:35;;;;;;;1.80;0.40;;;;;;;;;;4997422;28;20049;-54
2022/09/27 00:49:21;;;;;;;0.77;0.50;;;;;;;;;;4989118;28;20074;-57
2022/09/27 00:51:52;;;;;;;1.33;0.43;;;;;;;;;;4990675;28;20482;-74
2022/09/27 00:54:19;;;;;;;0.88;0.50;;;;;;;;;;4994434;28;20068;-74
2022/09/27 00:56:45;;;;;;;4.30;0.45;;;;;;;;;;5015736;28;20504;-73
2022/09/27 00:59:18;;;;;;;1.55;0.32;;;;;;;;;;4991387;28;20045;-74
2022/09/27 01:01:44;;;;;;;0.63;0.22;;;;;;;;;;4991083;28;20079;-60
2022/09/27 01:04:12;;;;;;;1.65;0.45;;;;;;;;;;4992327;28;20034;-60
2022/09/27 01:06:38;;;;;;;1.52;0.50;;;;;;;;;;4990477;28;20058;-59
2022/09/27 01:09:09;;;;;;;1.15;0.50;;;;;;;;;;4995371;28;20058;-60
2022/09/27 01:11:40;;;;;;;0.52;0.38;;;;;;;;;;4997508;28;20039;-60
2022/09/27 01:14:21;;;;;;;0.90;0.38;;;;;;;;;;4997225;28;20034;-60
2022/09/27 01:17:06;;;;;;;0.32;0.32;;;;;;;;;;4994964;28;20658;-59
2022/09/27 01:19:53;;;;;;;2.03;0.50;;;;;;;;;;4981479;28;20501;-60
2022/09/27 01:22:39;;;;;;;1.25;0.60;;;;;;;;;;4994240;28;20691;-60
2022/09/27 01:25:48;;;;;;;0.40;0.40;;;;;;;;;;4996073;28;20061;-60
2022/09/27 01:28:19;;;;;;;1.00;0.70;;;;;;;;;;4981743;28;20057;-60
2022/09/27 01:31:18;;;;;;;1.50;0.50;;;;;;;;;;4994473;28;20060;-60
2022/09/27 01:34:02;;;;;;;1.77;0.63;;;;;;;;;;4994228;28;20067;-60
2022/09/27 01:36:39;;;;;;;2.60;0.60;;;;;;;;;;4991496;28;20037;-60
2022/09/27 01:39:18;;;;;;;4.38;0.63;;;;;;;;;;4997260;28;20179;-60
2022/09/27 01:41:52;;;;;;;0.93;0.70;;;;;;;;;;4993302;28;20050;-60
2022/09/27 01:44:48;;;;;;;1.50;0.77;;;;;;;;;;4996970;28;20034;-61
2022/09/27 01:47:18;;;;;;;2.13;0.82;;;;;;;;;;4998757;28;20057;-61
2022/09/27 01:49:59;;;;;;;1.75;0.70;;;;;;;;;;4988690;28;20157;-61
2022/09/27 01:52:36;;;;;;;1.88;0.80;;;;;;;;;;4991692;28;21369;-65
2022/09/27 01:55:05;;;;;;;4.40;0.93;;;;;;;;;;4992441;28;20484;-63
2022/09/27 01:57:36;;;;;;;3.47;0.90;;;;;;;;;;4992639;28;20057;-64
2022/09/27 02:00:07;;;;;;;2.92;0.70;;;;;;;;;;4988746;28;20053;-60
2022/09/27 02:02:38;;;;;;;5.35;1.00;;;;;;;;;;4993356;28;20045;-60
2022/09/27 02:05:07;;;;;;;5.40;1.67;;;;;;;;;;4997633;28;20035;-60
2022/09/27 02:07:50;;;;;;;7.88;4.43;;;;;;;;;;4991581;28;20153;-60
2022/09/27 02:10:21;;;;;;;5.18;0.88;;;;;;;;;;4993729;28;20039;-61
2022/09/27 02:13:04;;;;;;;1.63;0.70;;;;;;;;;;4998258;28;20050;-60
2022/09/27 02:15:40;;;;;;;2.83;1.02;;;;;;;;;;4994893;28;20496;-60
2022/09/27 02:18:15;;;;;;;4.13;1.13;;;;;;;;;;4994005;28;20145;-61
2022/09/27 02:20:49;;;;;;;5.10;1.23;;;;;;;;;;5000556;28;20625;-60
2022/09/27 02:23:32;;;;;;;4.10;1.15;;;;;;;;;;4990803;28;20042;-59
2022/09/27 02:26:02;;;;;;;3.10;0.82;;;;;;;;;;4997081;28;20046;-61
2022/09/27 02:28:33;;;;;;;4.28;1.13;;;;;;;;;;4998401;28;20057;-60
2022/09/27 02:30:59;;;;;;;4.18;0.95;;;;;;;;;;4995936;28;20129;-60
2022/09/27 02:33:33;;;;;;;1.20;0.75;;;;;;;;;;4997177;28;20124;-61
2022/09/27 02:35:58;;;;;;;2.15;1.30;;;;;;;;;;5001263;28;20046;-62
2022/09/27 02:38:24;;;;;;;4.50;1.10;;;;;;;;;;4998849;28;20088;-62
2022/09/27 02:40:49;;;;;;;4.60;1.20;;;;;;;;;;4998933;28;20069;-62
2022/09/27 02:43:17;;;;;;;3.75;1.17;;;;;;;;;;5001049;28;20715;-62
2022/09/27 02:46:17;;;;;;;2.75;0.80;;;;;;;;;;4999180;28;20085;-62
2022/09/27 02:49:09;;;;;;;1.90;0.63;;;;;;;;;;4998334;28;20089;-60
2022/09/27 02:51:55;;;;;;;2.58;0.52;;;;;;;;;;4998527;28;20060;-59
2022/09/27 02:54:31;;;;;;;2.42;0.63;;;;;;;;;;5000332;28;20038;-60
2022/09/27 02:57:12;;;;;;;0.40;0.30;;;;;;;;;;4997508;28;20046;-59
2022/09/27 02:59:40;;;;;;;1.02;0.30;;;;;;;;;;4996889;28;20030;-60
2022/09/27 03:02:09;;;;;;;1.45;0.35;;;;;;;;;;4994992;28;20496;-61
2022/09/27 03:04:38;;;;;;;0.77;0.15;;;;;;;;;;4995108;28;20072;-60
2022/09/27 03:07:04;;;;;;;1.10;0.20;;;;;;;;;;4999730;28;20054;-62
2022/09/27 03:09:43;;;;;;;0.52;0.20;;;;;;;;;;4993891;28;20045;-60
2022/09/27 03:12:09;;;;;;;5.18;1.88;;;;;;;;;;4996178;28;20058;-59
2022/09/27 03:14:35;;;;;;;1.95;0.52;;;;;;;;;;4997276;28;20026;-60
2022/09/27 03:17:00;;;;;;;2.40;0.38;;;;;;;;;;4989309;28;20536;-62
2022/09/27 03:19:25;;;;;;;2.10;0.20;;;;;;;;;;4994506;28;20156;-61
2022/09/27 03:21:51;;;;;;;1.50;0.38;;;;;;;;;;4998361;28;20050;-62
2022/09/27 03:24:16;;;;;;;1.45;0.40;;;;;;;;;;5001370;28;20058;-61
2022/09/27 03:26:42;;;;;;;1.48;0.55;;;;;;;;;;4996048;28;20046;-59
2022/09/27 03:29:07;;;;;;;0.20;0.20;;;;;;;;;;4995539;28;20034;-60
2022/09/27 03:31:32;;;;;;;0.40;0.10;;;;;;;;;;4995615;28;20050;-62
2022/09/27 03:33:58;;;;;;;0.77;0.35;;;;;;;;;;4988997;28;20128;-60
2022/09/27 03:36:23;;;;;;;0.82;0.20;;;;;;;;;;4999774;28;20053;-61
2022/09/27 03:38:49;;;;;;;0.30;0.25;;;;;;;;;;4997749;28;20092;-60
2022/09/27 03:41:14;;;;;;;0.85;0.28;;;;;;;;;;4998571;28;20646;-61
2022/09/27 03:43:40;;;;;;;0.98;0.40;;;;;;;;;;4995840;28;20049;-60
2022/09/27 03:46:05;;;;;;;0.60;0.25;;;;;;;;;;4988840;28;20138;-60
2022/09/27 03:48:31;;;;;;;0.22;0.20;;;;;;;;;;4992889;28;20092;-60
2022/09/27 03:50:56;;;;;;;0.40;0.20;;;;;;;;;;4993074;28;20060;-61
2022/09/27 03:53:21;;;;;;;3.35;0.40;;;;;;;;;;4996418;28;20063;-60
2022/09/27 03:55:47;;;;;;;1.85;0.30;;;;;;;;;;4991670;28;20057;-60
2022/09/27 03:58:13;;;;;;;0.75;0.20;;;;;;;;;;4993053;28;20511;-60
2022/09/27 04:00:40;;;;;;;0.28;0.13;;;;;;;;;;4996724;28;20577;-60
2022/09/27 04:03:05;;;;;;;1.65;0.35;;;;;;;;;;4993566;28;20058;-60
2022/09/27 04:05:31;;;;;;;3.60;0.32;;;;;;;;;;5000808;28;20042;-66
2022/09/27 04:07:57;;;;;;;0.75;0.28;;;;;;;;;;4997600;28;20122;-67
2022/09/27 04:10:22;;;;;;;0.20;0.20;;;;;;;;;;4995519;28;20129;-67
2022/09/27 04:12:48;;;;;;;1.02;0.28;;;;;;;;;;4990046;28;20051;-66
2022/09/27 04:15:13;;;;;;;1.23;0.15;;;;;;;;;;5011162;28;20034;-67
2022/09/27 04:17:42;;;;;;;3.92;0.55;;;;;;;;;;4995327;28;20496;-67
2022/09/27 04:20:09;;;;;;;0.45;0.32;;;;;;;;;;4995633;28;20037;-66
2022/09/27 04:22:38;;;;;;;0.17;0.10;;;;;;;;;;4992182;28;20049;-66
2022/09/27 04:25:04;;;;;;;0.50;0.30;;;;;;;;;;4996850;28;20057;-66
2022/09/27 04:27:29;;;;;;;0.88;0.25;;;;;;;;;;4992351;28;20066;-66
2022/09/27 04:29:54;;;;;;;0.43;0.17;;;;;;;;;;4991583;28;20049;-66
2022/09/27 04:32:20;;;;;;;1.25;0.30;;;;;;;;;;4991089;28;20038;-66
2022/09/27 04:37:29;;;;;;;0.70;0.20;;;;;;;;;;4996535;28;20941;-68
2022/09/27 04:39:55;;;;;;;1.45;0.43;;;;;;;;;;4993074;28;20050;-68
2022/09/27 04:42:20;;;;;;;0.20;0.20;;;;;;;;;;4995314;28;20060;-68
2022/09/27 04:44:46;;;;;;;0.20;0.20;;;;;;;;;;4993797;28;20121;-67
2022/09/27 04:47:12;;;;;;;3.13;0.30;;;;;;;;;;4991541;28;20037;-67
2022/09/27 04:49:37;;;;;;;0.85;0.13;;;;;;;;;;4993146;28;20053;-66
2022/09/27 04:52:04;;;;;;;0.80;0.40;;;;;;;;;;4981567;28;20085;-66
2022/09/27 04:54:29;;;;;;;0.65;0.20;;;;;;;;;;4984848;28;20034;-66
2022/09/27 04:56:55;;;;;;;3.75;0.30;;;;;;;;;;4991606;28;20076;-66
2022/09/27 04:59:20;;;;;;;0.15;0.15;;;;;;;;;;4995805;28;20429;-67
2022/09/27 05:01:45;;;;;;;0.32;0.32;;;;;;;;;;4995658;28;20070;-66
2022/09/27 05:04:11;;;;;;;1.30;0.50;;;;;;;;;;4992273;28;20046;-66
2022/09/27 05:06:37;;;;;;;0.32;0.20;;;;;;;;;;4990290;28;20056;-58
2022/09/27 05:09:02;;;;;;;0.45;0.30;;;;;;;;;;4991665;28;20085;-57
2022/09/27 05:11:27;;;;;;;0.38;0.38;;;;;;;;;;4995131;28;20041;-51
2022/09/27 05:13:53;;;;;;;0.93;0.30;;;;;;;;;;4990775;28;20085;-51
2022/09/27 05:16:18;;;;;;;0.13;0.10;;;;;;;;;;4993220;28;20397;-57
2022/09/27 05:18:44;;;;;;;0.30;0.20;;;;;;;;;;4998219;28;20041;-57
2022/09/27 05:21:10;;;;;;;0.25;0.25;;;;;;;;;;4990289;28;20062;-57
2022/09/27 05:23:36;;;;;;;0.30;0.30;;;;;;;;;;4992163;28;20065;-57
2022/09/27 05:26:06;;;;;;;0.82;0.57;;;;;;;;;;4992470;28;20037;-55
2022/09/27 05:28:33;;;;;;;3.65;0.43;;;;;;;;;;4990173;28;20125;-56
2022/09/27 05:31:00;;;;;;;0.57;0.38;;;;;;;;;;4989620;28;20138;-59
2022/09/27 05:33:25;;;;;;;2.15;0.60;;;;;;;;;;4997411;28;20042;-58
2022/09/27 05:35:55;;;;;;;1.80;0.60;;;;;;;;;;4994700;28;20046;-56
2022/09/27 05:38:21;;;;;;;1.17;0.70;;;;;;;;;;4993731;28;20030;-58
2022/09/27 05:40:49;;;;;;;0.98;0.47;;;;;;;;;;4989330;28;20107;-56
2022/09/27 05:43:14;;;;;;;0.20;0.20;;;;;;;;;;4974018;28;20061;-56
2022/09/27 05:45:40;;;;;;;0.85;0.80;;;;;;;;;;4973791;28;20058;-56
2022/09/27 05:48:06;;;;;;;1.48;0.40;;;;;;;;;;4973205;28;20058;-55
2022/09/27 05:50:31;;;;;;;0.93;0.40;;;;;;;;;;4974258;28;20114;-55
2022/09/27 05:52:57;;;;;;;1.95;0.30;;;;;;;;;;4971418;28;20084;-55
2022/09/27 05:55:22;;;;;;;0.20;0.20;;;;;;;;;;4972985;28;20050;-56
2022/09/27 05:58:03;;;;;;;1.95;0.30;;;;;;;;;;4974620;28;20035;-57
2022/09/27 06:00:28;;;;;;;0.35;0.30;;;;;;;;;;4982976;28;20046;-55
2022/09/27 06:02:59;;;;;;;1.10;0.40;;;;;;;;;;4989214;28;20415;-57
2022/09/27 06:05:26;;;;;;;1.55;0.30;;;;;;;;;;4988655;28;20034;-56
2022/09/27 06:07:56;;;;;;;4.60;0.60;;;;;;;;;;4993187;28;20045;-56
2022/09/27 06:10:22;;;;;;;0.80;0.35;;;;;;;;;;5003065;28;20042;-58
2022/09/27 06:12:48;;;;;;;0.90;0.35;;;;;;;;;;4994629;28;20092;-58
2022/09/27 06:15:14;;;;;;;0.82;0.25;;;;;;;;;;4996556;28;20050;-57
2022/09/27 06:17:39;;;;;;;0.77;0.22;;;;;;;;;;4994652;28;20259;-58
2022/09/27 06:20:05;;;;;;;0.80;0.20;;;;;;;;;;4990572;28;20033;-56
2022/09/27 06:22:30;;;;;;;0.75;0.63;;;;;;;;;;4993429;28;20171;-57
2022/09/27 06:24:56;;;;;;;1.88;0.47;;;;;;;;;;4992775;28;20145;-58
2022/09/27 06:27:21;;;;;;;0.85;0.38;;;;;;;;;;4992021;28;20073;-57
2022/09/27 06:29:46;;;;;;;1.75;0.30;;;;;;;;;;4997726;28;20038;-58
2022/09/27 06:32:12;;;;;;;0.30;0.20;;;;;;;;;;4992587;28;20033;-58
2022/09/27 06:34:38;;;;;;;1.05;0.40;;;;;;;;;;4996180;28;20209;-57
2022/09/27 06:37:03;;;;;;;1.15;0.28;;;;;;;;;;4997724;28;20481;-58
2022/09/27 06:39:32;;;;;;;5.45;0.80;;;;;;;;;;4994273;28;20046;-55
2022/09/27 06:41:58;;;;;;;1.00;0.40;;;;;;;;;;4986237;28;20050;-57
2022/09/27 06:44:24;;;;;;;4.72;0.47;;;;;;;;;;4993287;28;20030;-56
2022/09/27 06:46:51;;;;;;;0.65;0.30;;;;;;;;;;4987294;28;20141;-54
2022/09/27 06:49:17;;;;;;;2.58;0.40;;;;;;;;;;4990738;28;20050;-55
2022/09/27 06:51:42;;;;;;;5.55;1.13;;;;;;;;;;4991399;28;20042;-57
2022/09/27 06:54:08;;;;;;;1.58;0.47;;;;;;;;;;4989366;28;20050;-58
2022/09/27 06:56:33;;;;;;;2.83;0.50;;;;;;;;;;4988417;28;20022;-56
2022/09/27 07:01:44;;;;;;;1.20;0.40;;;;;;;;;;4989644;28;20122;-59
2022/09/27 07:04:10;;;;;;;2.80;0.40;;;;;;;;;;4990873;28;20054;-60
2022/09/27 07:06:36;;;;;;;0.75;0.30;;;;;;;;;;4996067;28;20500;-59
2022/09/27 07:09:02;;;;;;;0.45;0.20;;;;;;;;;;4987549;28;20050;-58
2022/09/27 07:11:29;;;;;;;1.63;0.30;;;;;;;;;;4983494;28;20449;-59
2022/09/27 07:13:55;;;;;;;1.08;0.40;;;;;;;;;;4996604;28;20056;-56
2022/09/27 07:16:21;;;;;;;0.45;0.30;;;;;;;;;;4992351;28;20177;-58
2022/09/27 07:18:48;;;;;;;1.92;0.40;;;;;;;;;;4988038;28;20061;-59
2022/09/27 07:21:15;;;;;;;0.25;0.20;;;;;;;;;;4985033;28;20053;-56
2022/09/27 07:23:40;;;;;;;1.23;0.20;;;;;;;;;;5004222;28;20038;-60
2022/09/27 07:26:06;;;;;;;0.85;0.43;;;;;;;;;;4998177;28;20041;-59
2022/09/27 07:28:32;;;;;;;0.88;0.40;;;;;;;;;;4996249;28;20058;-60
2022/09/27 07:30:58;;;;;;;0.47;0.30;;;;;;;;;;4995081;28;20473;-58
2022/09/27 07:33:24;;;;;;;0.57;0.25;;;;;;;;;;4996387;28;20045;-58
2022/09/27 07:35:49;;;;;;;0.52;0.25;;;;;;;;;;4999312;28;20133;-58
2022/09/27 07:38:15;;;;;;;0.30;0.20;;;;;;;;;;4997177;28;20064;-59
2022/09/27 07:40:41;;;;;;;1.23;0.30;;;;;;;;;;4998230;28;20477;-59
2022/09/27 07:43:08;;;;;;;1.10;0.17;;;;;;;;;;4995760;28;20057;-58
2022/09/27 07:45:34;;;;;;;0.90;0.30;;;;;;;;;;4998805;28;20089;-59
2022/09/27 07:47:59;;;;;;;0.30;0.25;;;;;;;;;;4996960;28;20092;-60
2022/09/27 07:50:25;;;;;;;0.60;0.28;;;;;;;;;;4999153;28;20528;-60
2022/09/27 07:52:51;;;;;;;1.02;0.57;;;;;;;;;;4994082;28;20034;-59
2022/09/27 07:55:18;;;;;;;1.30;0.20;;;;;;;;;;4997162;28;20046;-56
2022/09/27 07:57:46;;;;;;;3.53;0.55;;;;;;;;;;4997872;28;20046;-58
2022/09/27 08:00:14;;;;;;;0.80;0.60;;;;;;;;;;4993631;28;20045;-58
2022/09/27 08:02:41;;;;;;;4.03;0.82;;;;;;;;;;4996194;28;20058;-59
2022/09/27 08:05:07;;;;;;;0.50;0.50;;;;;;;;;;4995437;28;20037;-59
2022/09/27 08:07:33;;;;;;;1.13;0.43;;;;;;;;;;4998529;28;20616;-64
2022/09/27 08:09:59;;;;;;;0.95;0.30;;;;;;;;;;4995151;28;20520;-64
2022/09/27 08:12:24;;;;;;;1.08;0.30;;;;;;;;;;4992320;28;20121;-65
2022/09/27 08:14:51;;;;;;;3.40;0.65;;;;;;;;;;4992389;28;20051;-67
2022/09/27 08:17:19;;;;;;;2.42;0.60;;;;;;;;;;4999957;28;20025;-70
2022/09/27 08:19:47;;;;;;;0.55;0.30;;;;;;;;;;4993490;28;20121;-67
2022/09/27 08:22:12;;;;;;;1.45;0.50;;;;;;;;;;4997049;28;20053;-67
2022/09/27 08:24:38;;;;;;;0.57;0.20;;;;;;;;;;4994807;28;20038;-67
2022/09/27 08:27:06;;;;;;;2.47;0.70;;;;;;;;;;4995251;28;20068;-69
2022/09/27 08:29:32;;;;;;;1.30;0.40;;;;;;;;;;4999693;28;20600;-72
2022/09/27 08:31:58;;;;;;;1.50;0.47;;;;;;;;;;4991419;28;20025;-73
2022/09/27 08:34:23;;;;;;;2.53;0.47;;;;;;;;;;4996657;28;20042;-67
2022/09/27 08:36:48;;;;;;;2.80;0.30;;;;;;;;;;4989584;28;20045;-66
2022/09/27 08:39:14;;;;;;;3.28;0.50;;;;;;;;;;4996442;28;20480;-67
2022/09/27 08:41:56;;;;;;;1.10;0.45;;;;;;;;;;4995254;28;20077;-66
2022/09/27 08:44:45;;;;;;;3.55;0.40;;;;;;;;;;4976684;28;20030;-62
2022/09/27 08:47:18;;;;;;;2.97;0.60;;;;;;;;;;4995462;28;20077;-67
2022/09/27 08:49:52;;;;;;;2.00;0.38;;;;;;;;;;4998999;28;20038;-67
2022/09/27 08:52:41;;;;;;;1.58;0.50;;;;;;;;;;4999273;28;20038;-67
2022/09/27 08:55:35;;;;;;;0.95;0.30;;;;;;;;;;4997273;28;20104;-67
2022/09/27 08:58:03;;;;;;;2.05;0.30;;;;;;;;;;4997473;28;20104;-66
2022/09/27 09:00:29;;;;;;;0.38;0.20;;;;;;;;;;4995558;28;20066;-66
2022/09/27 09:03:00;;;;;;;0.52;0.28;;;;;;;;;;4993412;28;20651;-66
2022/09/27 09:05:36;;;;;;;2.10;0.20;;;;;;;;;;4991905;28;20366;-65
2022/09/27 09:08:17;;;;;;;0.88;0.20;;;;;;;;;;4991241;28;20457;-65
2022/09/27 09:14:15;;;;;;;1.23;0.22;;;;;;;;;;4996048;28;20455;-58
2022/09/27 09:16:46;;;;;;;0.40;0.30;;;;;;;;;;4993755;28;20065;-57
2022/09/27 09:19:26;;;;;;;0.65;0.28;;;;;;;;;;4990159;28;20092;-59
2022/09/27 09:21:57;;;;;;;0.77;0.30;;;;;;;;;;4994278;28;20061;-58
2022/09/27 09:24:29;;;;;;;0.10;0.10;;;;;;;;;;4995856;28;20128;-58
2022/09/27 09:27:16;;;;;;;0.40;0.20;;;;;;;;;;4993346;28;20060;-58
2022/09/27 09:30:04;;;;;;;1.10;0.35;;;;;;;;;;4995362;28;20081;-57
2022/09/27 09:33:00;;;;;;;3.35;0.38;;;;;;;;;;4993468;28;20120;-53
2022/09/27 09:35:39;;;;;;;1.65;0.22;;;;;;;;;;4993192;28;20053;-59
2022/09/27 09:38:22;;;;;;;3.70;0.30;;;;;;;;;;4989223;28;20041;-57
2022/09/27 09:40:56;;;;;;;1.15;0.20;;;;;;;;;;4994125;28;20121;-58
2022/09/27 09:43:41;;;;;;;4.63;0.80;;;;;;;;;;4994408;28;20111;-57
2022/09/27 09:46:16;;;;;;;1.60;0.30;;;;;;;;;;4995425;28;20532;-57
2022/09/27 09:49:03;;;;;;;0.50;0.22;;;;;;;;;;4991762;28;20034;-58
2022/09/27 09:51:35;;;;;;;5.82;0.40;;;;;;;;;;4995327;28;20141;-57
2022/09/27 09:54:21;;;;;;;0.55;0.30;;;;;;;;;;4992787;28;20042;-58
2022/09/27 09:57:23;;;;;;;0.17;0.13;;;;;;;;;;4991851;28;20054;-56
2022/09/27 09:59:54;;;;;;;1.27;0.30;;;;;;;;;;4986148;28;20436;-55
2022/09/27 10:02:31;;;;;;;1.60;0.22;;;;;;;;;;4993476;28;20504;-57
2022/09/27 10:04:56;;;;;;;1.42;0.30;;;;;;;;;;4995067;28;20045;-53
2022/09/27 10:07:23;;;;;;;0.40;0.20;;;;;;;;;;4992584;28;20110;-57
2022/09/27 10:09:50;;;;;;;0.63;0.20;;;;;;;;;;4993890;28;20050;-55
2022/09/27 10:12:16;;;;;;;2.58;0.47;;;;;;;;;;4990832;28;20570;-57
2022/09/27 10:14:45;;;;;;;0.30;0.20;;;;;;;;;;4988488;28;20051;-58
2022/09/27 10:17:13;;;;;;;0.35;0.15;;;;;;;;;;4990086;28;20030;-54
2022/09/27 10:19:40;;;;;;;0.82;0.13;;;;;;;;;;4994904;28;20057;-55
2022/09/27 10:22:18;;;;;;;2.50;0.20;;;;;;;;;;4989925;28;20096;-55
2022/09/27 10:24:57;;;;;;;0.35;0.20;;;;;;;;;;4992963;28;20046;-57
2022/09/27 10:27:25;;;;;;;0.82;0.20;;;;;;;;;;4993116;28;20054;-59
2022/09/27 10:29:58;;;;;;;1.58;0.30;;;;;;;;;;4990176;28;20054;-58
2022/09/27 10:32:32;;;;;;;0.85;0.45;;;;;;;;;;4990287;28;20127;-57
2022/09/27 10:35:18;;;;;;;1.63;0.20;;;;;;;;;;4990419;28;20081;-58
2022/09/27 10:37:44;;;;;;;0.20;0.20;;;;;;;;;;4993314;28;20038;-59
2022/09/27 10:40:25;;;;;;;0.40;0.20;;;;;;;;;;4980168;28;20833;-59
2022/09/27 10:42:50;;;;;;;1.15;0.30;;;;;;;;;;4986228;28;21988;-57
2022/09/27 10:45:37;;;;;;;0.30;0.30;;;;;;;;;;4991294;28;21220;-58
2022/09/27 10:48:03;;;;;;;5.05;0.22;;;;;;;;;;4987663;28;20674;-57
2022/09/27 10:50:30;;;;;;;1.95;0.40;;;;;;;;;;4991163;28;20029;-59
2022/09/27 10:53:13;;;;;;;0.55;0.13;;;;;;;;;;4993710;28;20163;-57
2022/09/27 10:55:41;;;;;;;1.45;0.20;;;;;;;;;;4993572;28;20049;-58
2022/09/27 10:58:14;;;;;;;1.08;0.25;;;;;;;;;;4995095;28;20062;-56
2022/09/27 11:00:40;;;;;;;0.30;0.20;;;;;;;;;;5000202;28;20057;-60
2022/09/27 11:03:13;;;;;;;2.38;0.40;;;;;;;;;;4999170;28;20046;-56
2022/09/27 11:05:39;;;;;;;0.35;0.20;;;;;;;;;;4999272;28;20026;-58
2022/09/27 11:08:22;;;;;;;0.70;0.30;;;;;;;;;;4993754;28;20484;-59
2022/09/27 11:11:13;;;;;;;0.93;0.40;;;;;;;;;;4994009;28;20050;-58
2022/09/27 11:13:39;;;;;;;0.80;0.32;;;;;;;;;;4990979;28;20056;-58
2022/09/27 11:16:42;;;;;;;1.02;0.30;;;;;;;;;;4997247;28;20041;-58
2022/09/27 11:19:27;;;;;;;0.95;0.30;;;;;;;;;;4983157;28;20042;-59
2022/09/27 11:22:14;;;;;;;2.88;0.30;;;;;;;;;;4988402;28;20065;-58
2022/09/27 11:25:11;;;;;;;1.10;0.43;;;;;;;;;;4990831;28;20061;-62
2022/09/27 11:27:53;;;;;;;0.77;0.40;;;;;;;;;;4993555;28;20506;-59
2022/09/27 11:30:21;;;;;;;2.55;0.47;;;;;;;;;;4986660;28;20053;-60
2022/09/27 11:33:18;;;;;;;1.10;0.60;;;;;;;;;;4996556;28;20497;-59
2022/09/27 11:35:57;;;;;;;1.52;0.57;;;;;;;;;;5000767;28;20080;-59
2022/09/27 11:38:31;;;;;;;1.38;0.40;;;;;;;;;;4998561;28;20037;-60
2022/09/27 11:41:11;;;;;;;1.15;0.45;;;;;;;;;;4998244;28;20034;-60
2022/09/27 11:44:01;;;;;;;0.98;0.60;;;;;;;;;;4996676;28;20508;-59
2022/09/27 11:46:37;;;;;;;2.35;1.17;;;;;;;;;;4996408;28;20070;-58
2022/09/27 11:49:29;;;;;;;1.08;0.40;;;;;;;;;;5000867;28;20040;-57
2022/09/27 11:52:12;;;;;;;0.82;0.40;;;;;;;;;;5000358;28;20069;-59
2022/09/27 11:54:57;;;;;;;2.13;0.45;;;;;;;;;;4996111;28;20046;-60
2022/09/27 11:57:30;;;;;;;1.80;0.40;;;;;;;;;;4994208;28;20045;-68
2022/09/27 11:59:59;;;;;;;0.90;0.40;;;;;;;;;;4987506;28;20050;-65
2022/09/27 12:03:01;;;;;;;0.93;0.40;;;;;;;;;;4992477;28;20417;-64
2022/09/27 12:05:34;;;;;;;0.85;0.30;;;;;;;;;;4987420;28;20034;-63
2022/09/27 12:08:30;;;;;;;1.08;0.35;;;;;;;;;;4970739;28;20041;-66
2022/09/27 12:11:07;;;;;;;2.38;0.50;;;;;;;;;;4988608;28;20096;-58
2022/09/27 12:13:57;;;;;;;1.20;0.45;;;;;;;;;;4986291;28;20082;-57
2022/09/27 12:16:25;;;;;;;1.48;0.50;;;;;;;;;;4993365;28;20046;-57
2022/09/27 12:18:52;;;;;;;2.58;0.63;;;;;;;;;;4980288;28;20097;-52
2022/09/27 12:21:19;;;;;;;0.73;0.50;;;;;;;;;;4982989;28;20523;-55
2022/09/27 12:23:48;;;;;;;2.45;0.50;;;;;;;;;;4990269;28;20077;-59
2022/09/27 12:26:21;;;;;;;4.35;0.50;;;;;;;;;;4988836;28;20042;-60
2022/09/27 12:29:12;;;;;;;0.65;0.50;;;;;;;;;;4988708;28;20054;-57
2022/09/27 12:32:06;;;;;;;1.05;0.50;;;;;;;;;;4992167;28;20041;-59
2022/09/27 12:34:55;;;;;;;2.67;0.75;;;;;;;;;;4991039;28;20062;-57
2022/09/27 12:37:27;;;;;;;0.63;0.35;;;;;;;;;;4975465;28;20081;-57
2022/09/27 12:40:01;;;;;;;3.13;0.70;;;;;;;;;;4990256;28;20045;-59
2022/09/27 12:42:35;;;;;;;0.88;0.40;;;;;;;;;;4995397;28;20370;-57
2022/09/27 12:45:01;;;;;;;1.02;0.57;;;;;;;;;;4992134;28;20077;-59
2022/09/27 12:47:42;;;;;;;2.42;0.40;;;;;;;;;;4997843;28;20042;-64
2022/09/27 12:50:23;;;;;;;1.20;0.43;;;;;;;;;;4996072;28;20042;-65
2022/09/27 12:52:56;;;;;;;0.75;0.40;;;;;;;;;;4999208;28;20077;-65
2022/09/27 12:55:30;;;;;;;0.20;0.20;;;;;;;;;;4995427;28;20949;-64
2022/09/27 12:58:14;;;;;;;0.45;0.20;;;;;;;;;;4996645;28;20338;-65
2022/09/27 13:01:12;;;;;;;0.52;0.20;;;;;;;;;;4993593;28;20538;-64
2022/09/27 13:03:49;;;;;;;0.43;0.20;;;;;;;;;;4997163;28;20054;-62
2022/09/27 13:06:24;;;;;;;1.67;0.40;;;;;;;;;;4991256;28;20068;-65
2022/09/27 13:09:07;;;;;;;0.70;0.30;;;;;;;;;;4998743;28;20137;-66
2022/09/27 13:11:59;;;;;;;1.00;0.20;;;;;;;;;;4994751;28;20068;-65
2022/09/27 13:14:28;;;;;;;4.40;0.28;;;;;;;;;;4992910;28;20437;-64
2022/09/27 13:16:53;;;;;;;1.48;0.30;;;;;;;;;;4993240;28;20236;-64
2022/09/27 13:19:44;;;;;;;0.22;0.20;;;;;;;;;;4990872;28;20118;-64
2022/09/27 13:22:35;;;;;;;0.40;0.40;;;;;;;;;;4989214;28;20125;-66
2022/09/27 13:25:01;;;;;;;0.22;0.15;;;;;;;;;;4995284;28;20085;-65
2022/09/27 13:27:26;;;;;;;0.22;0.20;;;;;;;;;;4990552;28;20412;-63
2022/09/27 13:30:15;;;;;;;1.08;0.30;;;;;;;;;;4992254;28;20048;-63
2022/09/27 13:33:09;;;;;;;0.45;0.20;;;;;;;;;;4997076;28;20056;-60
2022/09/27 13:35:35;;;;;;;1.75;0.40;;;;;;;;;;4994081;28;20568;-62
2022/09/27 13:38:02;;;;;;;0.47;0.20;;;;;;;;;;4993247;28;20038;-62
2022/09/27 13:40:31;;;;;;;1.10;0.30;;;;;;;;;;4993662;28;20049;-63
2022/09/27 13:43:10;;;;;;;2.55;0.38;;;;;;;;;;4989228;28;20452;-63
2022/09/27 13:46:06;;;;;;;0.43;0.30;;;;;;;;;;4991200;28;20069;-58
2022/09/27 13:48:34;;;;;;;0.38;0.35;;;;;;;;;;4990507;28;20141;-59
2022/09/27 13:51:20;;;;;;;0.20;0.20;;;;;;;;;;4994710;28;20088;-61
2022/09/27 13:53:59;;;;;;;0.70;0.30;;;;;;;;;;4996162;28;20061;-57
2022/09/27 13:56:37;;;;;;;0.47;0.20;;;;;;;;;;4993150;28;20041;-61
2022/09/27 13:59:09;;;;;;;0.17;0.15;;;;;;;;;;5000844;28;20033;-60
2022/09/27 14:01:40;;;;;;;0.95;0.40;;;;;;;;;;4994337;28;20051;-59
2022/09/27 14:04:30;;;;;;;2.97;0.30;;;;;;;;;;4991392;28;20050;-60
2022/09/27 14:06:59;;;;;;;3.60;1.95;;;;;;;;;;4981564;28;20158;-60
2022/09/27 14:09:31;;;;;;;0.73;0.40;;;;;;;;;;4994605;28;20045;-59
2022/09/27 14:12:09;;;;;;;1.25;0.40;;;;;;;;;;4999073;28;20253;-59
2022/09/27 14:14:35;;;;;;;1.33;0.43;;;;;;;;;;4998646;28;20429;-59
2022/09/27 14:17:02;;;;;;;1.05;0.50;;;;;;;;;;4998374;28;20030;-62
2022/09/27 14:19:28;;;;;;;1.08;0.50;;;;;;;;;;4999715;28;20078;-63
2022/09/27 14:21:54;;;;;;;2.22;0.40;;;;;;;;;;4995526;28;20042;-63
2022/09/27 14:24:32;;;;;;;0.45;0.20;;;;;;;;;;4997386;28;20058;-63
2022/09/27 14:27:19;;;;;;;1.40;0.40;;;;;;;;;;4997575;28;20041;-63
2022/09/27 14:29:56;;;;;;;1.00;0.43;;;;;;;;;;5000359;28;20133;-63
2022/09/27 14:32:24;;;;;;;2.33;0.45;;;;;;;;;;4999051;28;20156;-64
2022/09/27 14:37:53;;;;;;;2.55;0.47;;;;;;;;;;5000724;28;20551;-62
2022/09/27 14:40:21;;;;;;;1.67;0.60;;;;;;;;;;4997020;28;20042;-62
2022/09/27 14:42:52;;;;;;;2.20;0.45;;;;;;;;;;4995665;28;20042;-63
2022/09/27 14:45:22;;;;;;;1.67;0.50;;;;;;;;;;4991484;28;20069;-63
2022/09/27 14:47:50;;;;;;;1.17;0.40;;;;;;;;;;5001102;28;20058;-64
2022/09/27 14:50:21;;;;;;;0.93;0.32;;;;;;;;;;4996460;28;20080;-64
2022/09/27 14:52:48;;;;;;;3.17;0.60;;;;;;;;;;4998464;28;20065;-64
2022/09/27 14:55:17;;;;;;;2.03;0.57;;;;;;;;;;4999628;28;20543;-63
2022/09/27 14:57:50;;;;;;;1.02;0.40;;;;;;;;;;4995937;28;20136;-63
2022/09/27 15:00:25;;;;;;;0.60;0.20;;;;;;;;;;4996591;28;20049;-63
2022/09/27 15:02:58;;;;;;;1.90;0.40;;;;;;;;;;4996965;28;20043;-62
2022/09/27 15:05:31;;;;;;;0.50;0.20;;;;;;;;;;5002759;28;20025;-63
2022/09/27 15:08:00;;;;;;;1.02;0.60;;;;;;;;;;5000695;28;20044;-64
2022/09/27 15:10:30;;;;;;;0.57;0.40;;;;;;;;;;5001005;28;20045;-63
2022/09/27 15:12:58;;;;;;;0.63;0.50;;;;;;;;;;4998628;28;20054;-58
2022/09/27 15:15:30;;;;;;;0.47;0.40;;;;;;;;;;4996769;28;20069;-59
2022/09/27 15:17:55;;;;;;;0.68;0.28;;;;;;;;;;4991419;28;20045;-57
2022/09/27 15:20:26;;;;;;;1.10;0.45;;;;;;;;;;4994993;28;20029;-58
2022/09/27 15:22:52;;;;;;;1.02;0.55;;;;;;;;;;4989502;28;20045;-60
2022/09/27 15:25:19;;;;;;;1.77;0.60;;;;;;;;;;5001185;28;20053;-57